Main page
METAR-TAF:

METAR-TAF

Airports :

Malmstrom Air Force Base

Great Falls, Montana, United States

latitude: 47-30N, longitude: 111-11W, elevation: 3526 ft

Current weather observation

The report was made 57 minutes ago, at 21:58 UTC
Wind 5 mph from the North/Northwest
Temperature 84°F
Humidity 25%
Pressure 30.13 in. Hg
Visibility: 10 miles
Clear sky

METAR: KGFA 092158Z AUTO 34004KT 10SM CLR 29/07 A3013 RMK AO2 SLP178 T02880068 $

Time: 16:55 (22:55 UTC)

Forecast

The report was made 2 hours and 55 minutes ago, at 20:00 UTC
Forecast valid from 09 at 20 UTC to 11 at 02 UTC
Wind 7 mph from variable directions
Visibility 6.2 miles or more
Clear sky
Becoming
from 11 at 00 UTC to 11 at 01 UTC
Wind 10 mph from the West
Visibility: 29527 ft
Scattered clouds at a height of 10000 ft
light rain showers

TAF: KGFA 092000Z 0920/1102 VRB06KT 9999 SKC QNH3003INS BECMG 1100/1101 27009KT 9000 -SHRA SCT100 QNH3003INS TX31/0923Z TN13/1011Z

Weather observations and forecasts of more than 4000 airports (METAR and TAF reports).

The available stations are represented by yellow and red dots on the map.

Hover mouse over dot to see the name of the station.

Then click to see weather observations and forecasts.

To change the map : click on the green buttons with a black cross to zoom in, on the green button with a dash to zoom out, or on the green arrows for adjacent maps.


METAR-TAF: